Time;durP1;ratioP1;P1;durP2;ratioP2;P2;SDS_P1;SDS_P2;PMS_P1;PMS_P2;Temp;Humidity;BMP_temperature;BMP_pressure;BME280_temperature;BME280_humidity;BME280_pressure;Samples;Min_cycle;Max_cycle;Signal;HPM_P1;HPM_P2
2023/12/20 00:02:19;;;;;;;14.05;10.40;;;;;;;6.71;59.19;95160.44;6242806;23;20000;-85
2023/12/20 00:04:45;;;;;;;15.80;10.95;;;;;;;6.48;59.75;95166.16;6192649;23;20031;-86
2023/12/20 00:07:10;;;;;;;15.55;10.98;;;;;;;6.43;59.55;95161.44;6217057;23;20049;-85
2023/12/20 00:09:36;;;;;;;15.65;10.85;;;;;;;6.43;60.03;95156.25;6242785;23;20095;-86
2023/12/20 00:12:01;;;;;;;15.38;10.00;;;;;;;6.47;59.45;95130.94;6217095;23;20074;-86
2023/12/20 00:14:27;;;;;;;14.45;10.20;;;;;;;6.48;59.40;95134.34;6217525;23;20019;-86
2023/12/20 00:16:52;;;;;;;15.55;10.60;;;;;;;6.36;59.66;95137.19;6217516;23;20032;-86
2023/12/20 00:19:19;;;;;;;15.52;10.85;;;;;;;6.57;59.47;95130.84;6216581;23;20019;-86
2023/12/20 00:21:44;;;;;;;15.30;10.75;;;;;;;6.58;58.71;95125.50;6217884;23;20004;-85
2023/12/20 00:24:10;;;;;;;15.32;11.10;;;;;;;6.62;58.52;95131.16;6219186;23;20015;-85
2023/12/20 00:26:35;;;;;;;13.63;10.52;;;;;;;6.51;59.17;95128.84;6218198;23;20012;-86
2023/12/20 00:29:01;;;;;;;13.82;10.48;;;;;;;5.99;60.25;95124.53;6219394;23;20012;-86
2023/12/20 00:31:26;;;;;;;15.40;10.27;;;;;;;6.17;59.09;95102.06;6194529;23;20016;-85
2023/12/20 00:33:52;;;;;;;13.52;10.25;;;;;;;6.44;58.15;95103.63;6219392;23;20012;-86
2023/12/20 00:36:17;;;;;;;13.85;10.32;;;;;;;6.29;57.88;95114.72;6244161;23;20012;-86
2023/12/20 00:38:43;;;;;;;14.40;10.35;;;;;;;6.23;58.53;95111.78;6194230;23;20012;-86
2023/12/20 00:41:08;;;;;;;16.42;10.57;;;;;;;6.51;57.73;95114.19;6218855;23;20008;-86
2023/12/20 00:43:33;;;;;;;15.38;11.02;;;;;;;6.63;57.58;95128.44;6219363;23;20072;-86
2023/12/20 00:46:00;;;;;;;13.80;10.30;;;;;;;6.96;57.12;95128.53;6219377;23;20008;-86
2023/12/20 00:48:30;;;;;;;14.73;9.93;;;;;;;7.20;55.89;95132.16;6194039;23;20058;-86
2023/12/20 00:50:55;;;;;;;15.27;10.70;;;;;;;7.10;56.58;95136.66;6219945;23;20012;-86
2023/12/20 00:53:24;;;;;;;15.40;9.90;;;;;;;7.09;56.37;95138.44;6218681;23;20008;-86
2023/12/20 00:55:50;;;;;;;14.90;10.75;;;;;;;6.94;56.96;95146.00;6219230;23;20000;-85
2023/12/20 00:58:15;;;;;;;16.95;11.02;;;;;;;7.00;56.49;95129.84;6194175;23;20035;-86
2023/12/20 01:00:42;;;;;;;14.18;11.10;;;;;;;6.76;56.42;95127.16;6244301;23;20015;-86
2023/12/20 01:03:08;;;;;;;15.25;10.65;;;;;;;6.98;56.28;95134.38;6219358;23;20007;-86
2023/12/20 01:05:33;;;;;;;13.60;10.68;;;;;;;6.49;57.65;95129.00;6218846;23;20132;-86
2023/12/20 01:07:59;;;;;;;14.82;10.57;;;;;;;6.34;58.30;95125.38;6218224;23;20008;-85
2023/12/20 01:10:28;;;;;;;16.23;10.95;;;;;;;6.28;58.57;95131.97;6219445;23;20008;-85
2023/12/20 01:12:53;;;;;;;16.88;10.95;;;;;;;6.13;58.52;95125.75;6194489;23;20019;-86
2023/12/20 01:15:18;;;;;;;14.77;10.55;;;;;;;6.53;57.49;95135.50;6219087;23;20008;-86
2023/12/20 01:17:44;;;;;;;15.43;10.85;;;;;;;6.82;56.73;95121.41;6244031;23;20007;-86
2023/12/20 01:20:10;;;;;;;14.80;11.30;;;;;;;7.12;55.71;95142.47;6218568;23;20016;-86
2023/12/20 01:22:35;;;;;;;17.48;11.20;;;;;;;7.14;56.29;95137.94;6193604;23;20014;-86
2023/12/20 01:25:02;;;;;;;15.48;10.60;;;;;;;7.04;56.53;95131.16;6218816;23;20008;-85
2023/12/20 01:27:27;;;;;;;14.38;10.38;;;;;;;6.99;56.73;95130.81;6193634;23;20061;-86
2023/12/20 01:29:53;;;;;;;15.35;11.13;;;;;;;7.16;56.46;95152.38;6218491;23;20095;-86
2023/12/20 01:32:18;;;;;;;16.73;11.20;;;;;;;7.17;56.63;95148.00;6242864;23;20000;-86
2023/12/20 01:34:44;;;;;;;16.48;11.18;;;;;;;7.17;56.36;95145.41;6216768;23;20027;-86
2023/12/20 01:37:09;;;;;;;18.77;10.98;;;;;;;7.03;56.50;95150.22;6193734;23;20011;-86
2023/12/20 01:39:35;;;;;;;16.30;11.05;;;;;;;7.27;55.43;95166.75;6243985;23;20003;-86
2023/12/20 01:42:00;;;;;;;14.07;10.25;;;;;;;7.11;56.50;95159.78;6218154;23;20008;-86
2023/12/20 01:44:26;;;;;;;15.43;11.05;;;;;;;7.10;56.25;95152.16;6218154;23;20035;-86
2023/12/20 01:46:52;;;;;;;15.32;10.77;;;;;;;6.98;56.03;95152.47;6218173;23;20041;-86
2023/12/20 01:49:19;;;;;;;16.08;10.70;;;;;;;6.89;55.94;95144.84;6192113;23;20093;-86
2023/12/20 01:51:45;;;;;;;15.25;10.27;;;;;;;7.01;55.89;95144.41;6242212;23;20004;-86
2023/12/20 01:54:11;;;;;;;13.82;10.18;;;;;;;6.95;55.59;95142.44;6216808;23;20004;-86
2023/12/20 01:56:37;;;;;;;13.18;9.50;;;;;;;7.36;53.63;95139.16;6217330;23;20071;-86
2023/12/20 01:59:04;;;;;;;12.55;9.10;;;;;;;7.40;53.81;95141.25;6218269;23;20008;-86
2023/12/20 02:01:30;;;;;;;11.55;8.32;;;;;;;7.56;52.89;95150.81;6217947;23;20027;-86
2023/12/20 02:03:56;;;;;;;12.10;8.73;;;;;;;7.49;53.37;95144.66;6243740;23;20004;-86
2023/12/20 02:06:24;;;;;;;10.18;7.65;;;;;;;7.45;52.64;95138.19;6218644;23;20004;-85
2023/12/20 02:08:50;;;;;;;10.10;7.30;;;;;;;7.42;50.78;95133.31;6218547;23;20008;-86
2023/12/20 02:11:16;;;;;;;10.85;7.13;;;;;;;7.23;52.59;95118.91;6243085;23;20054;-86
2023/12/20 02:13:41;;;;;;;10.52;7.45;;;;;;;7.67;51.26;95125.59;6218624;23;20058;-85
2023/12/20 02:16:07;;;;;;;9.70;6.68;;;;;;;7.55;51.30;95119.91;6217925;23;20008;-85
2023/12/20 02:18:33;;;;;;;8.80;6.78;;;;;;;7.37;51.95;95130.44;6218066;23;20008;-86
2023/12/20 02:20:58;;;;;;;9.07;6.68;;;;;;;7.37;51.59;95127.84;6192638;23;20012;-86
2023/12/20 02:23:24;;;;;;;8.40;6.35;;;;;;;7.37;51.27;95113.13;6218425;23;20087;-86
2023/12/20 02:25:49;;;;;;;6.47;5.05;;;;;;;7.78;48.96;95104.53;6243224;23;20024;-86
2023/12/20 02:28:15;;;;;;;7.35;5.20;;;;;;;7.71;48.57;95091.47;6243472;23;20056;-86
2023/12/20 02:30:41;;;;;;;5.80;3.95;;;;;;;7.75;47.42;95078.97;6243648;23;20054;-86
2023/12/20 02:33:12;;;;;;;7.00;4.97;;;;;;;7.96;48.54;95099.19;6217645;23;20012;-86
2023/12/20 02:35:37;;;;;;;6.43;4.63;;;;;;;8.36;47.99;95107.88;6242492;23;20016;-86
2023/12/20 02:38:03;;;;;;;7.10;5.38;;;;;;;7.97;48.89;95100.81;6217747;23;20015;-86
2023/12/20 02:40:28;;;;;;;7.03;5.13;;;;;;;8.20;48.79;95091.34;6217659;23;20040;-86
2023/12/20 02:42:54;;;;;;;7.78;4.90;;;;;;;8.29;48.65;95088.75;6217682;23;20008;-86
2023/12/20 02:45:19;;;;;;;6.90;4.97;;;;;;;8.40;48.37;95091.00;6216998;23;20062;-86
2023/12/20 02:47:46;;;;;;;6.18;4.78;;;;;;;8.37;48.20;95096.50;6193238;23;20012;-86
2023/12/20 02:50:12;;;;;;;6.05;4.55;;;;;;;8.54;47.30;95087.72;6217916;23;20008;-85
2023/12/20 02:52:37;;;;;;;7.07;4.80;;;;;;;8.68;47.34;95086.25;6192787;23;20008;-86
2023/12/20 02:55:03;;;;;;;6.60;4.25;;;;;;;8.50;46.71;95085.66;6192877;23;20050;-86
2023/12/20 02:57:28;;;;;;;5.30;4.28;;;;;;;8.38;47.11;95072.22;6192405;23;20008;-86
2023/12/20 02:59:54;;;;;;;5.45;4.32;;;;;;;8.58;46.73;95083.81;6192650;23;20007;-86
2023/12/20 03:02:19;;;;;;;4.97;4.10;;;;;;;8.67;46.66;95078.63;6192527;23;20019;-86
2023/12/20 03:04:45;;;;;;;5.90;4.03;;;;;;;8.96;46.48;95091.75;6217739;23;20014;-86
2023/12/20 03:07:14;;;;;;;5.18;3.47;;;;;;;8.80;47.26;95092.66;6217948;23;20083;-86
2023/12/20 03:09:39;;;;;;;4.82;3.72;;;;;;;9.11;46.13;95076.25;6217713;23;20012;-86
2023/12/20 03:12:05;;;;;;;5.18;3.83;;;;;;;9.03;46.07;95067.75;6217430;23;20015;-86
2023/12/20 03:14:30;;;;;;;4.55;3.50;;;;;;;9.43;46.01;95091.81;6217380;23;20004;-86
2023/12/20 03:16:56;;;;;;;5.03;3.85;;;;;;;9.24;47.36;95088.69;6217915;23;20008;-86
2023/12/20 03:19:21;;;;;;;4.85;3.70;;;;;;;9.02;48.81;95092.84;6243412;23;20020;-85
2023/12/20 03:21:47;;;;;;;5.75;4.22;;;;;;;9.20;48.37;95123.75;6242110;23;20008;-86
2023/12/20 03:24:12;;;;;;;5.38;4.07;;;;;;;9.09;49.60;95126.72;6215791;23;20115;-86
2023/12/20 03:26:38;;;;;;;6.03;4.10;;;;;;;9.19;48.73;95137.69;6217336;23;20004;-86
2023/12/20 03:29:03;;;;;;;5.47;4.25;;;;;;;9.15;49.48;95128.63;6216988;23;20016;-86
2023/12/20 03:31:28;;;;;;;6.40;4.50;;;;;;;9.05;49.35;95138.44;6217322;23;20073;-86
2023/12/20 03:33:54;;;;;;;5.78;4.50;;;;;;;8.94;49.30;95127.44;6216623;23;20092;-86
2023/12/20 03:36:20;;;;;;;5.95;4.75;;;;;;;8.91;50.19;95143.34;6217588;23;20064;-86
2023/12/20 03:38:46;;;;;;;6.30;4.60;;;;;;;8.71;51.45;95149.91;6217399;23;20103;-86
2023/12/20 03:41:11;;;;;;;6.68;5.20;;;;;;;8.58;52.88;95159.00;6242461;23;20031;-86
2023/12/20 03:43:37;;;;;;;7.75;5.05;;;;;;;8.77;52.67;95157.00;6217172;23;20039;-86
2023/12/20 03:46:03;;;;;;;7.15;5.30;;;;;;;8.60;53.91;95169.22;6216696;23;20015;-86
2023/12/20 03:48:29;;;;;;;6.90;5.43;;;;;;;8.62;53.68;95169.84;6242641;23;20008;-86
2023/12/20 03:50:56;;;;;;;7.65;5.70;;;;;;;8.56;53.86;95176.50;6192496;23;20008;-86
2023/12/20 03:53:22;;;;;;;8.43;6.30;;;;;;;8.48;54.97;95176.53;6217873;23;20006;-86
2023/12/20 03:55:47;;;;;;;7.20;5.78;;;;;;;8.47;55.15;95180.09;6217517;23;20001;-86
2023/12/20 03:58:13;;;;;;;7.35;5.28;;;;;;;8.30;56.11;95168.94;6216950;23;20019;-86
2023/12/20 04:00:38;;;;;;;7.95;5.50;;;;;;;8.11;56.93;95177.88;6217935;23;20012;-86
2023/12/20 04:03:05;;;;;;;8.18;6.00;;;;;;;7.77;58.32;95172.84;6216811;23;20115;-86
2023/12/20 04:05:30;;;;;;;10.10;5.65;;;;;;;7.82;58.58;95175.75;6217432;23;20012;-86
2023/12/20 04:07:56;;;;;;;8.98;6.45;;;;;;;7.81;58.88;95164.59;6242681;23;20099;-86
2023/12/20 04:10:21;;;;;;;7.85;6.03;;;;;;;7.75;58.83;95169.59;6217510;23;20035;-86
2023/12/20 04:12:47;;;;;;;10.13;6.63;;;;;;;8.08;59.03;95167.81;6217374;23;20015;-86
2023/12/20 04:15:12;;;;;;;8.98;6.72;;;;;;;8.07;58.92;95162.78;6217344;23;20060;-85
2023/12/20 04:17:38;;;;;;;11.38;7.28;;;;;;;8.12;58.90;95148.38;6217372;23;20008;-86
2023/12/20 04:20:04;;;;;;;11.65;7.78;;;;;;;7.50;61.05;95138.53;6217196;23;20060;-86
2023/12/20 04:22:29;;;;;;;9.85;7.60;;;;;;;6.67;63.99;95138.47;6191716;23;20008;-86
2023/12/20 04:24:55;;;;;;;11.15;7.60;;;;;;;6.95;63.33;95147.63;6217010;23;20008;-86
2023/12/20 04:27:20;;;;;;;9.15;6.50;;;;;;;7.16;62.61;95138.59;6216814;23;20091;-86
2023/12/20 04:29:46;;;;;;;10.25;7.25;;;;;;;7.16;62.04;95133.44;6242161;23;20004;-86
2023/12/20 04:32:11;;;;;;;10.73;7.75;;;;;;;7.20;62.46;95145.09;6192227;23;20004;-86
2023/12/20 04:34:37;;;;;;;10.50;6.78;;;;;;;7.30;62.09;95138.00;6200624;22;20023;-86
2023/12/20 04:37:02;;;;;;;9.60;6.50;;;;;;;7.72;60.76;95144.84;6222509;22;20149;-85
2023/12/20 04:39:28;;;;;;;10.40;7.55;;;;;;;7.19;62.73;95156.41;6222265;22;20000;-85
2023/12/20 04:41:54;;;;;;;13.63;7.88;;;;;;;7.46;61.46;95157.09;6222300;22;20018;-86
2023/12/20 04:44:19;;;;;;;8.82;6.85;;;;;;;7.60;61.10;95152.13;6222587;22;20061;-86
2023/12/20 04:46:44;;;;;;;10.13;7.05;;;;;;;7.49;61.51;95156.81;6222635;22;20007;-86
2023/12/20 04:49:10;;;;;;;10.82;7.85;;;;;;;7.48;61.56;95170.69;6222640;22;20012;-85
2023/12/20 04:51:36;;;;;;;9.35;6.85;;;;;;;7.74;60.96;95179.13;6222267;22;20075;-86
2023/12/20 04:54:02;;;;;;;9.52;6.82;;;;;;;7.85;60.89;95179.81;6222748;22;20019;-86
2023/12/20 04:56:28;;;;;;;9.77;6.63;;;;;;;7.86;60.88;95174.44;6247506;22;20004;-85
2023/12/20 04:58:53;;;;;;;9.55;6.90;;;;;;;8.04;60.65;95187.25;6247472;22;20009;-86
2023/12/20 05:01:19;;;;;;;10.77;7.28;;;;;;;8.03;60.76;95183.03;6222424;22;20087;-86
2023/12/20 05:03:44;;;;;;;8.93;6.82;;;;;;;8.15;60.62;95205.06;6247665;22;20113;-85
2023/12/20 05:06:10;;;;;;;10.77;7.22;;;;;;;8.08;60.78;95196.31;6222066;22;20065;-85
2023/12/20 05:08:36;;;;;;;10.00;7.35;;;;;;;8.19;60.86;95205.53;6247862;22;20039;-85
2023/12/20 05:11:02;;;;;;;11.90;7.90;;;;;;;8.17;61.50;95223.84;6223725;22;20013;-85
2023/12/20 05:13:28;;;;;;;10.75;7.70;;;;;;;7.99;61.68;95218.00;6197855;22;20012;-85
2023/12/20 05:15:54;;;;;;;10.55;7.65;;;;;;;8.06;61.90;95237.13;6223008;22;19995;-85
2023/12/20 05:18:20;;;;;;;11.73;8.93;;;;;;;8.05;61.80;95237.25;6223795;22;20069;-85
2023/12/20 05:20:46;;;;;;;13.60;9.30;;;;;;;8.12;61.88;95235.66;6223128;22;20019;-85
2023/12/20 05:23:13;;;;;;;12.93;8.70;;;;;;;8.20;61.46;95240.84;6223850;22;20011;-85
2023/12/20 05:25:39;;;;;;;16.17;10.35;;;;;;;8.16;61.60;95245.53;6249226;22;20027;-86
2023/12/20 05:28:04;;;;;;;13.65;9.45;;;;;;;8.06;61.90;95242.28;6248431;22;20003;-85
2023/12/20 05:30:30;;;;;;;18.25;11.38;;;;;;;8.13;61.55;95248.44;6248798;22;20011;-86
2023/12/20 05:32:55;;;;;;;14.48;9.80;;;;;;;7.95;62.21;95258.94;6248893;22;20104;-85
2023/12/20 05:35:22;;;;;;;19.77;11.70;;;;;;;8.05;61.92;95250.22;6223798;22;20053;-86
2023/12/20 05:37:47;;;;;;;19.45;11.85;;;;;;;8.09;62.08;95254.09;6224029;22;20035;-86
2023/12/20 05:40:14;;;;;;;15.20;10.43;;;;;;;8.35;61.44;95254.75;6223860;22;20076;-85
2023/12/20 05:42:40;;;;;;;19.50;11.40;;;;;;;7.88;62.63;95258.00;6198328;22;20007;-86
2023/12/20 05:45:06;;;;;;;17.58;11.25;;;;;;;7.81;62.68;95257.81;6223610;22;20016;-86
2023/12/20 05:47:31;;;;;;;17.77;10.95;;;;;;;7.69;63.10;95251.31;6223469;22;20012;-85
2023/12/20 05:49:57;;;;;;;16.63;11.77;;;;;;;7.77;62.50;95260.88;6223558;22;20012;-85
2023/12/20 05:52:22;;;;;;;19.38;12.55;;;;;;;7.51;63.70;95268.72;6223467;22;20007;-86
2023/12/20 05:54:49;;;;;;;17.85;12.10;;;;;;;7.70;62.85;95252.91;6223431;22;20034;-85
2023/12/20 05:57:15;;;;;;;20.10;13.32;;;;;;;7.72;63.02;95263.13;6248958;22;20086;-85
2023/12/20 05:59:40;;;;;;;20.40;13.05;;;;;;;7.75;63.14;95260.19;6223107;22;20035;-85
2023/12/20 06:02:06;;;;;;;17.60;11.65;;;;;;;7.77;62.96;95266.84;6249164;22;20014;-85
2023/12/20 06:04:32;;;;;;;18.30;11.35;;;;;;;7.63;63.27;95264.88;6223542;22;20034;-85
2023/12/20 06:06:58;;;;;;;19.65;11.75;;;;;;;7.73;63.13;95265.56;6248517;22;20011;-85
2023/12/20 06:09:23;;;;;;;19.42;12.25;;;;;;;7.70;63.18;95252.91;6223543;22;20062;-86
2023/12/20 06:11:50;;;;;;;18.83;12.55;;;;;;;7.36;63.93;95261.56;6223403;22;20037;-84
2023/12/20 06:14:15;;;;;;;16.40;11.30;;;;;;;7.62;63.74;95268.44;6223521;22;20011;-85
2023/12/20 06:16:41;;;;;;;16.52;11.20;;;;;;;7.06;64.87;95270.63;6223163;22;20073;-86
2023/12/20 06:19:06;;;;;;;17.30;11.05;;;;;;;6.87;66.05;95271.66;6222992;22;20064;-85
2023/12/20 06:21:32;;;;;;;13.23;8.75;;;;;;;7.00;65.18;95253.97;6223157;22;20016;-85
2023/12/20 06:24:00;;;;;;;10.55;7.88;;;;;;;7.09;65.08;95261.78;6223039;22;20012;-85
2023/12/20 06:26:25;;;;;;;12.95;8.98;;;;;;;7.55;63.66;95267.44;6222746;22;20011;-85
2023/12/20 06:28:51;;;;;;;12.65;9.43;;;;;;;7.66;62.96;95254.22;6223344;22;20004;-85
2023/12/20 06:31:16;;;;;;;10.75;8.15;;;;;;;7.37;63.85;95250.25;6222514;22;20038;-85
2023/12/20 06:33:43;;;;;;;12.23;8.77;;;;;;;7.60;63.33;95255.66;6222513;22;20023;-85
2023/12/20 06:36:13;;;;;;;12.43;8.68;;;;;;;7.78;63.29;95254.72;6247727;22;20034;-84
2023/12/20 06:38:38;;;;;;;11.95;7.60;;;;;;;7.50;63.75;95243.81;6222420;22;20069;-85
2023/12/20 06:41:04;;;;;;;8.65;6.55;;;;;;;7.81;62.48;95257.00;6222479;22;20008;-84
2023/12/20 06:43:30;;;;;;;7.90;5.90;;;;;;;7.88;62.17;95245.03;6197735;22;20007;-86
2023/12/20 06:45:56;;;;;;;7.22;5.95;;;;;;;8.08;61.29;95242.13;6222984;22;20081;-85
2023/12/20 06:48:22;;;;;;;7.35;5.43;;;;;;;7.87;61.94;95240.00;6222679;22;20008;-84
2023/12/20 06:50:47;;;;;;;6.18;5.20;;;;;;;7.99;61.71;95247.28;6223055;22;20037;-85
2023/12/20 06:53:14;;;;;;;9.43;6.80;;;;;;;7.91;62.24;95249.06;6222534;22;20090;-85
2023/12/20 06:55:39;;;;;;;7.93;5.75;;;;;;;7.74;62.30;95250.81;6222676;22;19999;-85
2023/12/20 06:58:05;;;;;;;7.97;5.72;;;;;;;7.92;62.36;95268.81;6222819;22;20003;-85
2023/12/20 07:00:32;;;;;;;8.15;6.13;;;;;;;7.89;62.00;95267.38;6198097;22;20087;-85
2023/12/20 07:02:58;;;;;;;8.77;7.07;;;;;;;8.15;61.83;95275.00;6246774;22;20067;-86
2023/12/20 07:05:24;;;;;;;8.45;6.00;;;;;;;7.82;62.39;95261.19;6220647;22;20012;-86
2023/12/20 07:07:50;;;;;;;9.05;6.32;;;;;;;8.04;62.12;95275.31;6222832;22;20008;-86
2023/12/20 07:10:15;;;;;;;8.23;6.10;;;;;;;7.89;62.64;95259.59;6247579;22;20052;-85
2023/12/20 07:12:40;;;;;;;9.48;6.82;;;;;;;7.91;62.44;95283.53;6222695;22;20033;-84
2023/12/20 07:15:07;;;;;;;9.30;6.63;;;;;;;7.90;62.52;95273.34;6248176;22;20015;-85
2023/12/20 07:17:34;;;;;;;7.90;5.57;;;;;;;7.98;62.06;95273.38;6222487;22;20122;-85
2023/12/20 07:20:03;;;;;;;8.15;5.70;;;;;;;7.95;62.10;95274.50;6197567;22;20031;-85
2023/12/20 07:22:32;;;;;;;9.15;6.00;;;;;;;8.11;61.43;95294.44;6247599;22;20027;-85
2023/12/20 07:24:58;;;;;;;7.57;5.90;;;;;;;8.15;61.28;95285.38;6222616;22;20012;-85
2023/12/20 07:27:24;;;;;;;8.50;5.90;;;;;;;7.53;63.61;95283.13;6222367;22;20031;-85
2023/12/20 07:29:49;;;;;;;6.90;5.22;;;;;;;7.69;62.52;95264.25;6246998;22;20000;-85
2023/12/20 07:32:15;;;;;;;7.85;5.28;;;;;;;7.83;62.53;95276.56;6245945;22;20010;-85
2023/12/20 07:34:40;;;;;;;6.63;4.82;;;;;;;7.94;62.10;95270.28;6220537;22;20027;-85
2023/12/20 07:37:06;;;;;;;7.63;5.65;;;;;;;7.79;62.26;95275.28;6196068;22;20041;-85
2023/12/20 07:39:31;;;;;;;6.40;4.90;;;;;;;7.67;62.61;95270.53;6221263;22;20036;-86
2023/12/20 07:41:57;;;;;;;6.75;4.72;;;;;;;7.79;62.57;95271.88;6222791;22;20008;-85
2023/12/20 07:44:22;;;;;;;8.85;7.03;;;;;;;7.91;62.01;95272.38;6222566;22;20074;-86
2023/12/20 07:46:49;;;;;;;5.70;4.60;;;;;;;7.94;61.70;95277.22;6222294;22;20003;-85
2023/12/20 07:49:15;;;;;;;6.75;5.00;;;;;;;8.06;61.75;95291.50;6197526;22;20018;-84
2023/12/20 07:51:40;;;;;;;8.73;6.22;;;;;;;8.06;62.24;95288.13;6222261;22;20007;-85
2023/12/20 07:54:07;;;;;;;9.07;6.53;;;;;;;7.99;62.70;95287.94;6222331;22;20034;-84
2023/12/20 07:56:33;;;;;;;21.60;13.45;;;;;;;7.95;62.90;95284.84;6222269;22;20007;-85
2023/12/20 07:58:59;;;;;;;20.40;13.15;;;;;;;7.98;63.11;95279.34;6246052;22;20015;-84
2023/12/20 08:01:24;;;;;;;11.23;7.22;;;;;;;7.96;62.91;95275.31;6221952;22;20154;-84
2023/12/20 08:03:50;;;;;;;33.22;19.77;;;;;;;8.12;62.34;95292.66;6221954;22;20061;-85
2023/12/20 08:06:17;;;;;;;16.55;10.00;;;;;;;8.21;61.91;95297.69;6246519;22;20087;-84
2023/12/20 08:08:42;;;;;;;12.32;7.45;;;;;;;8.20;61.95;95303.00;6222579;22;20012;-86
2023/12/20 08:11:08;;;;;;;9.02;6.15;;;;;;;8.23;61.98;95305.28;6221362;22;20038;-86
2023/12/20 08:13:33;;;;;;;19.52;11.18;;;;;;;8.17;62.04;95298.16;6221802;22;20014;-85
2023/12/20 08:15:59;;;;;;;23.90;13.10;;;;;;;8.03;62.44;95307.34;6221742;22;20007;-85
2023/12/20 08:18:24;;;;;;;30.77;16.42;;;;;;;8.11;62.53;95309.97;6196336;22;20015;-85
2023/12/20 08:20:52;;;;;;;45.13;21.48;;;;;;;8.18;62.23;95310.13;6221555;22;20014;-85
2023/12/20 08:23:18;;;;;;;93.75;41.35;;;;;;;8.09;62.71;95309.34;6247130;22;20010;-84
2023/12/20 08:25:43;;;;;;;170.45;68.40;;;;;;;8.18;62.19;95323.91;6221883;22;20012;-85
2023/12/20 08:28:09;;;;;;;284.92;125.55;;;;;;;8.13;63.06;95320.16;6196795;22;20061;-84
2023/12/20 08:30:34;;;;;;;213.55;102.55;;;;;;;8.10;62.77;95321.31;6221556;22;20007;-85
2023/12/20 08:33:01;;;;;;;107.75;53.35;;;;;;;7.95;63.80;95325.47;6197094;22;20003;-85
2023/12/20 08:35:26;;;;;;;23.42;13.15;;;;;;;8.02;62.96;95319.50;6246850;22;20115;-85
2023/12/20 08:37:53;;;;;;;12.82;8.02;;;;;;;8.10;62.80;95298.00;6222722;22;20043;-85
2023/12/20 08:40:18;;;;;;;7.93;5.50;;;;;;;8.23;62.25;95307.88;6247101;22;20039;-86
2023/12/20 08:42:44;;;;;;;7.20;4.85;;;;;;;8.23;62.38;95303.50;6221896;22;20061;-88
2023/12/20 08:45:10;;;;;;;5.65;4.05;;;;;;;8.11;62.84;95315.16;6224248;22;20103;-86
2023/12/20 08:47:35;;;;;;;4.32;2.85;;;;;;;8.18;62.83;95312.72;6249186;22;20011;-86
2023/12/20 08:50:01;;;;;;;4.03;2.80;;;;;;;7.90;63.75;95300.06;6223753;22;20012;-87
2023/12/20 08:52:27;;;;;;;4.82;2.47;;;;;;;8.42;62.60;95317.16;6225053;22;20024;-86
2023/12/20 08:54:53;;;;;;;5.25;2.90;;;;;;;8.54;61.95;95315.84;6223585;22;20091;-87
2023/12/20 08:57:23;;;;;;;9.45;6.68;;;;;;;8.27;62.56;95309.19;6247986;22;20093;-87
2023/12/20 08:59:49;;;;;;;27.85;15.70;;;;;;;8.38;62.95;95311.47;6249365;22;19999;-88
2023/12/20 09:02:18;;;;;;;17.25;10.45;;;;;;;8.50;62.87;95317.16;6199512;22;20016;-88
2023/12/20 09:04:43;;;;;;;3.65;2.78;;;;;;;8.63;61.67;95310.69;6249762;22;19996;-88
2023/12/20 09:07:30;;;;;;;3.78;3.15;;;;;;;8.49;61.51;95312.97;6224384;22;20014;-88
2023/12/20 09:09:55;;;;;;;3.00;1.90;;;;;;;8.72;61.34;95302.75;6250006;22;20000;-89
2023/12/20 10:40:39;;;;;;;5.57;4.20;;;;;;;9.35;62.00;95262.19;6247036;22;20024;-87
2023/12/20 10:43:07;;;;;;;6.95;4.50;;;;;;;9.29;62.49;95257.69;6248206;22;20011;-86
2023/12/20 10:45:34;;;;;;;4.95;3.50;;;;;;;9.41;62.14;95265.91;6247855;22;20011;-86
2023/12/20 10:48:01;;;;;;;5.22;3.22;;;;;;;9.24;62.52;95247.00;6247831;22;20003;-86
2023/12/20 11:05:29;;;;;;;6.65;4.57;;;;;;;9.28;63.19;95245.66;6246067;22;20036;-86
2023/12/20 11:08:03;;;;;;;6.38;4.97;;;;;;;9.33;62.81;95238.19;6247099;22;20039;-85
2023/12/20 11:10:38;;;;;;;64.97;11.15;;;;;;;9.37;63.34;95243.88;6246899;22;20027;-85
2023/12/20 11:13:12;;;;;;;37.80;11.23;;;;;;;9.38;63.05;95240.28;6246665;22;20103;-85
2023/12/20 11:15:39;;;;;;;19.30;10.13;;;;;;;9.48;62.51;95234.88;6244944;22;20000;-84
2023/12/20 11:18:06;;;;;;;38.15;12.35;;;;;;;9.16;63.45;95226.28;6246570;22;20090;-84
2023/12/20 11:20:39;;;;;;;16.52;10.30;;;;;;;9.41;62.65;95226.16;6221384;22;20008;-83
2023/12/20 11:23:06;;;;;;;18.05;11.20;;;;;;;9.34;63.10;95233.81;6246536;22;20000;-84
2023/12/20 11:25:46;;;;;;;11.77;7.97;;;;;;;9.32;62.79;95241.75;6196150;22;20101;-84
2023/12/20 11:28:12;;;;;;;16.38;10.18;;;;;;;9.15;63.58;95224.63;6246260;22;20011;-84
2023/12/20 11:30:48;;;;;;;13.50;9.00;;;;;;;9.29;62.67;95228.31;6246534;22;20011;-84
2023/12/20 11:33:16;;;;;;;14.63;9.15;;;;;;;9.19;63.40;95220.72;6221599;22;20089;-84
2023/12/20 11:35:45;;;;;;;10.82;7.97;;;;;;;9.37;62.22;95236.06;6246370;22;20006;-84
2023/12/20 11:38:10;;;;;;;14.25;9.00;;;;;;;9.23;63.31;95231.59;6247084;22;20023;-84
2023/12/20 11:40:36;;;;;;;10.95;7.90;;;;;;;9.23;63.03;95224.59;6246451;22;20003;-84
2023/12/20 11:43:04;;;;;;;13.02;8.50;;;;;;;9.26;63.48;95231.25;6221519;22;20011;-84
2023/12/20 11:45:30;;;;;;;13.43;9.68;;;;;;;9.00;63.77;95222.75;6246728;22;20031;-84
2023/12/20 11:47:57;;;;;;;11.98;8.38;;;;;;;9.16;63.40;95229.66;6221169;22;20032;-84
2023/12/20 11:50:23;;;;;;;12.32;8.40;;;;;;;9.36;62.85;95237.03;6246746;22;20018;-84
2023/12/20 11:52:49;;;;;;;11.70;8.30;;;;;;;9.26;63.25;95241.63;6247669;22;20099;-84
2023/12/20 11:55:15;;;;;;;11.57;7.68;;;;;;;9.28;63.20;95230.09;6247431;22;20030;-84
2023/12/20 11:57:43;;;;;;;11.48;8.10;;;;;;;9.31;63.07;95234.97;6221438;22;20008;-84
2023/12/20 12:00:13;;;;;;;13.82;8.38;;;;;;;8.91;64.38;95225.53;6221371;22;20042;-85
2023/12/20 12:02:38;;;;;;;12.70;7.73;;;;;;;9.12;63.82;95224.97;6221576;22;20000;-84
2023/12/20 12:05:05;;;;;;;11.63;7.93;;;;;;;9.07;63.86;95222.09;6220736;22;20241;-85
2023/12/20 12:07:31;;;;;;;9.52;7.03;;;;;;;9.39;62.58;95221.13;6221859;22;20078;-85
2023/12/20 12:09:57;;;;;;;10.05;6.78;;;;;;;9.29;63.23;95231.72;6196451;22;20018;-84
2023/12/20 12:12:25;;;;;;;12.85;8.32;;;;;;;9.41;63.13;95228.75;6247111;22;20079;-86
2023/12/20 12:14:50;;;;;;;12.00;8.60;;;;;;;9.48;62.39;95224.47;6197420;22;20008;-85
2023/12/20 12:17:16;;;;;;;13.85;8.73;;;;;;;9.41;63.13;95210.59;6221562;22;20095;-85
2023/12/20 12:19:42;;;;;;;12.68;8.25;;;;;;;9.41;62.78;95213.19;6223346;22;20008;-85
2023/12/20 12:22:13;;;;;;;13.25;8.82;;;;;;;9.12;63.19;95191.22;6249135;22;19995;-85
2023/12/20 12:24:44;;;;;;;11.80;8.55;;;;;;;8.93;64.30;95211.44;6248429;22;20007;-84
2023/12/20 12:27:10;;;;;;;11.32;7.93;;;;;;;9.26;62.97;95203.50;6248182;22;20075;-85
2023/12/20 12:29:36;;;;;;;13.05;8.70;;;;;;;9.37;63.19;95216.09;6248324;22;20031;-84
2023/12/20 12:32:08;;;;;;;11.95;8.10;;;;;;;9.29;63.06;95217.91;6197192;22;20015;-85
2023/12/20 12:34:34;;;;;;;11.15;7.88;;;;;;;9.43;62.31;95206.03;6247298;22;20008;-84
2023/12/20 12:37:00;;;;;;;11.88;8.35;;;;;;;8.89;64.31;95209.31;6223283;22;20003;-86
2023/12/20 12:39:26;;;;;;;13.07;8.88;;;;;;;8.83;64.36;95204.81;6248063;22;20004;-85
2023/12/20 12:41:54;;;;;;;14.55;9.55;;;;;;;9.14;63.71;95215.25;6221127;22;20012;-84
2023/12/20 12:44:20;;;;;;;14.52;9.93;;;;;;;9.11;63.58;95207.78;6222276;22;20003;-85
2023/12/20 12:46:46;;;;;;;11.80;8.85;;;;;;;9.12;63.99;95205.03;6223047;22;20031;-85
2023/12/20 12:49:12;;;;;;;15.00;10.27;;;;;;;9.31;63.31;95213.38;6213212;23;20049;-85
2023/12/20 12:51:38;;;;;;;16.83;10.25;;;;;;;8.93;64.27;95201.06;6217890;23;20087;-86
2023/12/20 12:54:05;;;;;;;11.45;7.72;;;;;;;9.21;62.74;95200.59;6193153;23;20023;-85
2023/12/20 12:56:31;;;;;;;7.35;5.78;;;;;;;9.28;61.95;95213.72;6217943;23;20000;-85
2023/12/20 12:58:59;;;;;;;6.03;5.10;;;;;;;9.14;62.47;95207.47;6192735;23;20004;-85
2023/12/20 13:01:25;;;;;;;5.63;4.45;;;;;;;9.02;62.27;95198.41;6193503;23;20008;-85
2023/12/20 13:03:51;;;;;;;7.32;5.32;;;;;;;9.12;62.23;95214.59;6192497;23;20016;-85
2023/12/20 13:06:17;;;;;;;6.97;5.30;;;;;;;9.59;60.64;95216.31;6217484;23;20008;-85
2023/12/20 13:08:44;;;;;;;8.45;6.10;;;;;;;9.35;61.43;95205.09;6216532;23;20035;-85
2023/12/20 13:11:09;;;;;;;7.82;5.70;;;;;;;9.33;61.92;95220.03;6217078;23;20015;-85
2023/12/20 13:13:35;;;;;;;8.93;6.30;;;;;;;9.30;61.83;95216.97;6216205;23;20009;-85